Time;durP1;ratioP1;P1;durP2;ratioP2;P2;SDS_P1;SDS_P2;PMS_P1;PMS_P2;Temp;Humidity;BMP_temperature;BMP_pressure;BME280_temperature;BME280_humidity;BME280_pressure;Samples;Min_cycle;Max_cycle;Signal;HPM_P1;HPM_P2
2021/06/10 00:02:18;;;;;;;21.47;15.20;;;;;;;25.25;41.33;101605.25;5075849;28;20812;-52
2021/06/10 00:04:47;;;;;;;32.40;20.87;;;;;;;25.15;41.76;101612.34;5076835;28;20465;-54
2021/06/10 00:07:14;;;;;;;52.60;29.60;;;;;;;25.24;41.90;101608.78;5073391;28;20454;-50
2021/06/10 00:09:42;;;;;;;32.63;19.93;;;;;;;24.88;42.15;101601.97;5081932;28;20563;-52
2021/06/10 00:12:11;;;;;;;19.73;14.17;;;;;;;24.79;42.53;101610.75;5086360;28;20458;-49
2021/06/10 00:14:38;;;;;;;20.37;13.57;;;;;;;24.91;42.10;101609.84;5083061;28;20476;-51
2021/06/10 00:17:06;;;;;;;20.70;14.00;;;;;;;24.61;42.70;101608.19;5086949;28;20962;-50
2021/06/10 00:19:33;;;;;;;20.73;14.43;;;;;;;24.41;43.30;101604.72;5087500;28;20476;-50
2021/06/10 00:22:02;;;;;;;20.47;14.57;;;;;;;24.22;43.85;101598.63;5085483;28;20454;-56
2021/06/10 00:24:29;;;;;;;27.10;18.00;;;;;;;24.19;44.19;101608.31;5083665;28;20939;-56
2021/06/10 00:26:57;;;;;;;23.07;15.13;;;;;;;24.25;43.71;101609.16;5082125;28;20464;-53
2021/06/10 00:29:24;;;;;;;25.13;16.87;;;;;;;24.41;43.71;101603.84;5084726;28;20779;-54
2021/06/10 00:31:51;;;;;;;20.63;14.23;;;;;;;24.10;43.88;101602.13;5086872;28;20455;-54
2021/06/10 00:34:18;;;;;;;22.20;14.80;;;;;;;23.88;44.47;101593.34;5081161;28;20474;-50
2021/06/10 00:36:45;;;;;;;25.30;15.17;;;;;;;23.90;44.49;101596.88;5085698;28;20481;-51
2021/06/10 00:39:13;;;;;;;19.73;14.93;;;;;;;23.84;44.58;101592.47;5085852;28;20482;-54
2021/06/10 00:41:40;;;;;;;32.23;17.80;;;;;;;24.32;43.79;101599.47;5082611;28;20788;-53
2021/06/10 00:44:08;;;;;;;47.80;31.40;;;;;;;24.22;44.05;101593.34;5085440;28;20759;-53
2021/06/10 00:46:36;;;;;;;27.37;17.10;;;;;;;24.23;43.78;101591.56;5084545;28;20463;-54
2021/06/10 00:49:03;;;;;;;24.10;17.20;;;;;;;23.94;44.41;101595.97;5091254;28;20552;-54
2021/06/10 00:51:31;;;;;;;20.40;14.30;;;;;;;24.09;43.75;101600.38;5095328;28;20461;-54
2021/06/10 00:53:59;;;;;;;17.53;12.50;;;;;;;24.00;43.32;101590.69;5094111;28;20491;-52
2021/06/10 00:56:28;;;;;;;22.60;13.67;;;;;;;23.92;43.48;101584.56;5088558;28;20577;-57
2021/06/10 00:58:55;;;;;;;21.17;14.73;;;;;;;23.96;43.09;101588.09;5086310;28;20481;-50
2021/06/10 01:01:22;;;;;;;18.40;12.63;;;;;;;23.98;43.31;101581.03;5080010;28;20456;-54
2021/06/10 01:03:50;;;;;;;16.97;12.70;;;;;;;23.75;43.54;101579.31;5061797;28;20479;-49
2021/06/10 01:06:25;;;;;;;18.70;14.00;;;;;;;23.87;43.78;101587.22;5068499;28;20477;-54
2021/06/10 01:08:59;;;;;;;23.00;14.57;;;;;;;23.85;43.86;101583.69;5062672;28;20482;-53
2021/06/10 01:11:36;;;;;;;19.27;13.77;;;;;;;23.82;43.89;101583.72;5060882;28;20789;-54
2021/06/10 01:14:09;;;;;;;19.07;13.07;;;;;;;23.76;43.66;101590.72;5053989;28;20483;-50
2021/06/10 01:16:39;;;;;;;18.73;13.87;;;;;;;23.66;44.30;101588.09;5054919;28;20577;-54
2021/06/10 01:19:10;;;;;;;19.73;13.93;;;;;;;23.57;44.00;101583.69;5054041;28;20514;-56
2021/06/10 01:21:38;;;;;;;20.70;12.50;;;;;;;23.22;44.64;101584.50;5053800;28;20467;-56
2021/06/10 01:24:14;;;;;;;19.93;13.20;;;;;;;23.09;44.90;101580.09;5054487;28;20473;-55
2021/06/10 01:26:52;;;;;;;18.73;12.30;;;;;;;22.95;45.13;101580.03;5055578;28;20756;-53
2021/06/10 01:29:21;;;;;;;16.17;12.20;;;;;;;22.95;45.39;101580.91;5053759;28;20473;-55
2021/06/10 01:31:48;;;;;;;18.17;12.27;;;;;;;22.81;45.61;101580.88;5055692;28;20460;-50
2021/06/10 01:34:16;;;;;;;20.07;12.93;;;;;;;23.00;45.16;101575.66;5054403;28;20482;-55
2021/06/10 01:36:45;;;;;;;19.43;13.53;;;;;;;23.04;45.49;101580.06;5055327;28;20489;-53
2021/06/10 01:39:14;;;;;;;17.43;13.03;;;;;;;23.04;45.36;101577.44;5054445;28;20478;-53
2021/06/10 01:41:42;;;;;;;21.17;15.30;;;;;;;23.09;44.58;101569.56;5055796;28;20458;-54
2021/06/10 01:44:10;;;;;;;18.83;14.37;;;;;;;23.08;44.83;101567.81;5054216;28;20487;-57
2021/06/10 01:46:40;;;;;;;21.67;15.00;;;;;;;23.17;44.62;101567.84;5054992;28;20463;-51
2021/06/10 01:49:11;;;;;;;21.70;14.93;;;;;;;23.28;43.82;101560.81;5054169;28;20496;-51
2021/06/10 01:51:38;;;;;;;21.07;14.90;;;;;;;23.20;44.31;101549.41;5054927;28;20892;-51
2021/06/10 01:54:06;;;;;;;22.63;15.77;;;;;;;23.03;45.23;101550.25;5053617;28;20480;-50
2021/06/10 01:56:34;;;;;;;20.13;15.30;;;;;;;23.26;44.43;101549.41;5055034;28;20478;-56
2021/06/10 01:59:02;;;;;;;27.40;15.60;;;;;;;23.12;44.48;101553.78;5054171;28;20476;-49
2021/06/10 02:01:31;;;;;;;20.03;14.70;;;;;;;23.14;44.45;101547.66;5055183;28;20455;-50
2021/06/10 02:04:00;;;;;;;17.40;13.30;;;;;;;23.14;43.73;101549.41;5054049;28;20919;-50
2021/06/10 02:06:28;;;;;;;19.40;14.40;;;;;;;23.18;43.86;101549.41;5055062;28;20461;-57
2021/06/10 02:08:55;;;;;;;19.77;15.10;;;;;;;23.26;43.60;101549.41;5054206;28;20479;-53
2021/06/10 02:11:23;;;;;;;22.40;15.33;;;;;;;22.73;44.53;101546.66;5055359;28;20460;-52
2021/06/10 02:13:50;;;;;;;18.73;14.00;;;;;;;22.29;46.66;101542.06;5053261;28;20495;-53
2021/06/10 02:16:18;;;;;;;22.27;14.00;;;;;;;22.44;45.96;101550.00;5054643;28;20467;-52
2021/06/10 02:18:47;;;;;;;19.13;13.60;;;;;;;22.06;46.83;101546.31;5054095;28;20476;-55
2021/06/10 02:21:16;;;;;;;22.00;13.93;;;;;;;22.10;46.98;101552.47;5055156;28;20559;-50
2021/06/10 02:23:44;;;;;;;19.00;14.70;;;;;;;22.48;46.43;101541.28;5053846;28;20489;-52
2021/06/10 02:26:12;;;;;;;18.77;13.53;;;;;;;22.46;46.11;101545.63;5054617;28;20458;-51
2021/06/10 02:28:39;;;;;;;17.17;13.10;;;;;;;22.15;47.16;101542.84;5053584;28;20482;-54
2021/06/10 02:31:07;;;;;;;20.03;14.67;;;;;;;22.26;46.55;101535.91;5055166;28;20542;-55
2021/06/10 02:33:37;;;;;;;16.63;12.30;;;;;;;22.08;47.26;101538.41;5070872;28;20561;-53
2021/06/10 02:36:06;;;;;;;20.37;13.47;;;;;;;22.28;46.94;101540.28;5074633;28;20473;-54
2021/06/10 02:38:34;;;;;;;19.17;13.20;;;;;;;22.36;46.24;101547.34;5073909;28;20484;-54
2021/06/10 02:41:06;;;;;;;20.63;12.90;;;;;;;22.41;45.83;101538.59;5074925;28;20489;-55
2021/06/10 02:43:34;;;;;;;20.83;13.70;;;;;;;22.49;45.67;101536.88;5074306;28;20477;-47
2021/06/10 02:46:02;;;;;;;16.90;12.70;;;;;;;22.32;45.66;101539.44;5074447;28;20462;-54
2021/06/10 02:48:30;;;;;;;17.90;13.50;;;;;;;22.07;45.43;101536.66;5073673;28;20573;-55
2021/06/10 02:50:57;;;;;;;18.07;13.70;;;;;;;21.78;46.95;101540.00;5074931;28;20454;-56
2021/06/10 02:53:26;;;;;;;17.20;12.53;;;;;;;21.92;46.56;101537.44;5073717;28;20484;-54
2021/06/10 02:55:56;;;;;;;17.43;13.17;;;;;;;22.17;46.41;101538.50;5074665;28;20451;-55
2021/06/10 02:58:24;;;;;;;20.30;12.83;;;;;;;21.84;46.77;101540.03;5073853;28;20489;-51
2021/06/10 03:00:52;;;;;;;25.50;12.60;;;;;;;22.09;46.60;101535.81;5074866;28;20524;-49
2021/06/10 03:03:19;;;;;;;18.27;13.00;;;;;;;21.92;46.45;101534.81;5073655;28;20470;-48
2021/06/10 03:05:47;;;;;;;24.43;16.70;;;;;;;22.03;47.31;101538.41;5075654;28;20460;-51
2021/06/10 03:08:16;;;;;;;17.10;12.83;;;;;;;21.92;46.28;101534.81;5076920;28;20485;-51
2021/06/10 03:10:44;;;;;;;22.87;14.10;;;;;;;22.15;46.61;101532.31;5078203;28;20469;-50
2021/06/10 03:13:15;;;;;;;26.63;17.27;;;;;;;21.94;46.41;101539.22;5077436;28;20488;-49
2021/06/10 03:15:44;;;;;;;23.40;15.50;;;;;;;21.90;47.27;101537.47;5077898;28;20466;-52
2021/06/10 03:18:12;;;;;;;24.80;16.13;;;;;;;;;;5076908;28;20789;-52
2021/06/10 03:20:39;;;;;;;22.10;16.07;;;;;;;22.22;46.11;101539.41;5077927;28;20767;-53
2021/06/10 03:23:06;;;;;;;22.67;15.77;;;;;;;22.16;46.76;101546.34;5077036;28;20798;-50
2021/06/10 03:25:34;;;;;;;18.57;13.10;;;;;;;22.34;46.04;101548.19;5077778;28;20476;-54
2021/06/10 03:28:02;;;;;;;21.63;14.43;;;;;;;22.10;46.04;101542.81;5076803;28;20572;-51
2021/06/10 03:30:30;;;;;;;27.00;18.10;;;;;;;21.77;46.73;101543.47;5077662;28;20905;-50
2021/06/10 03:32:58;;;;;;;21.13;15.00;;;;;;;21.81;46.37;101551.41;5076665;28;20505;-50
2021/06/10 03:35:25;;;;;;;17.67;12.00;;;;;;;21.59;46.99;101539.81;5077176;28;20473;-50
2021/06/10 03:37:53;;;;;;;21.63;16.13;;;;;;;21.64;47.59;101545.94;5077064;28;20736;-52
2021/06/10 03:40:21;;;;;;;21.57;14.07;;;;;;;21.98;46.68;101542.75;5077496;28;20489;-54
2021/06/10 03:42:49;;;;;;;23.07;15.23;;;;;;;21.87;47.48;101545.28;5077035;28;20480;-57
2021/06/10 03:45:17;;;;;;;20.03;14.90;;;;;;;21.99;46.53;101547.13;5077680;28;20454;-56
2021/06/10 03:47:46;;;;;;;19.30;14.90;;;;;;;21.81;47.22;101547.88;5076132;28;20485;-54
2021/06/10 03:50:16;;;;;;;20.00;14.53;;;;;;;21.91;47.75;101547.09;5077643;28;20569;-55
2021/06/10 03:52:44;;;;;;;20.00;15.20;;;;;;;21.99;47.27;101553.25;5076215;28;20487;-51
2021/06/10 03:55:12;;;;;;;21.47;14.80;;;;;;;22.02;47.81;101546.25;5077285;28;20465;-53
2021/06/10 03:57:39;;;;;;;18.53;14.67;;;;;;;21.88;47.84;101544.44;5075776;28;20479;-52
2021/06/10 04:00:08;;;;;;;21.90;15.30;;;;;;;22.11;47.10;101543.72;5077161;28;20786;-54
2021/06/10 04:02:36;;;;;;;22.77;16.27;;;;;;;22.01;47.68;101544.50;5076435;28;20471;-49
2021/06/10 04:05:07;;;;;;;21.00;15.13;;;;;;;22.36;47.02;101546.47;5077317;28;20803;-54
2021/06/10 04:07:35;;;;;;;18.10;13.80;;;;;;;22.27;47.10;101547.31;5076009;28;20463;-51
2021/06/10 04:10:03;;;;;;;17.50;13.30;;;;;;;22.33;46.75;101546.44;5076993;28;20488;-50
2021/06/10 04:12:30;;;;;;;19.63;14.50;;;;;;;22.21;47.34;101544.63;5075929;28;20475;-51
2021/06/10 04:14:58;;;;;;;17.37;13.33;;;;;;;22.20;47.51;101545.53;5077467;28;20454;-51
2021/06/10 04:17:25;;;;;;;17.80;13.90;;;;;;;22.30;47.25;101551.69;5074973;28;20493;-47
2021/06/10 04:19:52;;;;;;;22.20;14.90;;;;;;;22.49;46.74;101543.03;5076878;28;20776;-50
2021/06/10 04:22:20;;;;;;;19.50;14.30;;;;;;;22.49;46.55;101543.03;5075920;28;20454;-50
2021/06/10 04:24:47;;;;;;;17.67;13.20;;;;;;;22.58;46.30;101533.44;5076221;28;20457;-49
2021/06/10 04:27:15;;;;;;;17.00;12.67;;;;;;;22.81;45.99;101537.91;5075806;28;20458;-51
2021/06/10 04:29:42;;;;;;;17.07;12.47;;;;;;;22.84;46.02;101533.53;5076549;28;20485;-50
2021/06/10 04:32:09;;;;;;;16.97;12.97;;;;;;;22.78;46.28;101539.66;5075524;28;20459;-52
2021/06/10 04:34:36;;;;;;;15.87;11.97;;;;;;;22.67;46.33;101538.75;5076177;28;20932;-50
2021/06/10 04:37:04;;;;;;;17.83;12.83;;;;;;;22.96;46.11;101540.59;5075356;28;20469;-51
2021/06/10 04:39:32;;;;;;;17.20;12.23;;;;;;;22.74;46.21;101543.16;5076179;28;20494;-51
2021/06/10 04:41:59;;;;;;;15.97;12.00;;;;;;;22.77;46.01;101545.78;5076455;28;20466;-53
2021/06/10 04:44:26;;;;;;;16.30;12.50;;;;;;;23.03;45.17;101542.34;5096247;28;20455;-52
2021/06/10 04:46:53;;;;;;;17.90;12.10;;;;;;;23.06;44.99;101536.22;5096216;28;20465;-48
2021/06/10 04:49:20;;;;;;;15.70;11.63;;;;;;;22.71;45.64;101537.88;5083850;28;20842;-53
2021/06/10 04:51:48;;;;;;;19.93;11.70;;;;;;;22.91;45.61;101545.84;5096408;28;20468;-52
2021/06/10 04:54:15;;;;;;;18.27;11.10;;;;;;;23.10;44.43;101545.00;5095226;28;20492;-49
2021/06/10 04:56:43;;;;;;;35.43;20.47;;;;;;;22.98;45.69;101541.50;5095847;28;20455;-48
2021/06/10 04:59:10;;;;;;;26.90;17.43;;;;;;;22.95;45.08;101546.72;5095122;28;20486;-56
2021/06/10 05:01:37;;;;;;;29.63;18.50;;;;;;;23.21;45.04;101545.91;5096358;28;20768;-51
2021/06/10 05:04:04;;;;;;;19.47;12.20;;;;;;;23.04;45.08;101556.41;5095185;28;20930;-52
2021/06/10 05:06:32;;;;;;;20.13;12.97;;;;;;;23.52;44.46;101556.50;5095307;28;20463;-52
2021/06/10 05:08:59;;;;;;;27.37;16.10;;;;;;;23.53;44.57;101546.84;5094882;28;20797;-54
2021/06/10 05:11:26;;;;;;;38.43;23.83;;;;;;;23.50;44.83;101550.34;5096270;28;20823;-51
2021/06/10 05:13:54;;;;;;;19.93;12.73;;;;;;;23.45;44.98;101545.09;5094948;28;20923;-51
2021/06/10 05:16:21;;;;;;;17.80;11.70;;;;;;;23.46;45.03;101548.59;5095918;28;20460;-53
2021/06/10 05:18:48;;;;;;;28.77;14.03;;;;;;;23.77;45.42;101547.69;5094716;28;20797;-49
2021/06/10 05:21:15;;;;;;;24.40;15.23;;;;;;;23.57;45.33;101541.56;5096003;28;20461;-54
2021/06/10 05:23:42;;;;;;;33.13;16.50;;;;;;;23.65;45.79;101544.22;5094906;28;20474;-52
2021/06/10 05:26:10;;;;;;;22.97;14.60;;;;;;;24.11;44.27;101540.63;5095727;28;20459;-52
2021/06/10 05:28:37;;;;;;;22.27;13.33;;;;;;;23.84;44.16;101538.94;5093700;28;20480;-53
2021/06/10 05:31:07;;;;;;;19.73;13.47;;;;;;;23.84;44.21;101538.94;5095700;28;20904;-51
2021/06/10 05:33:35;;;;;;;22.00;13.47;;;;;;;23.63;45.14;101539.81;5094684;28;20505;-54
2021/06/10 05:36:03;;;;;;;19.67;12.70;;;;;;;23.73;45.08;101546.81;5095363;28;20921;-50
2021/06/10 05:38:30;;;;;;;18.27;12.30;;;;;;;24.11;44.04;101550.31;5094461;28;20484;-52
2021/06/10 05:40:57;;;;;;;18.50;12.30;;;;;;;24.35;43.65;101546.72;5095739;28;20461;-51
2021/06/10 05:43:25;;;;;;;41.10;17.47;;;;;;;24.51;43.37;101546.69;5094213;28;20482;-56
2021/06/10 05:45:52;;;;;;;30.20;15.87;;;;;;;24.91;42.97;101551.78;5095425;28;20471;-50
2021/06/10 05:48:21;;;;;;;19.13;11.50;;;;;;;24.66;42.70;101554.53;5094484;28;20473;-52
2021/06/10 05:50:48;;;;;;;27.10;13.00;;;;;;;24.98;42.70;101546.47;5095397;28;20462;-51
2021/06/10 05:53:16;;;;;;;25.63;13.00;;;;;;;24.94;42.99;101551.78;5094603;28;20800;-55
2021/06/10 05:55:43;;;;;;;19.17;10.70;;;;;;;24.55;42.29;101553.69;5095338;28;20458;-50
2021/06/10 05:58:10;;;;;;;32.60;22.27;;;;;;;24.97;41.32;101550.00;5094383;28;20490;-53
2021/06/10 06:00:37;;;;;;;102.47;68.07;;;;;;;25.08;41.67;101545.53;5095336;28;20457;-55
2021/06/10 06:03:06;;;;;;;62.00;37.80;;;;;;;25.31;41.01;101548.00;5094147;28;20479;-50
2021/06/10 06:05:35;;;;;;;16.73;11.70;;;;;;;25.40;40.47;101549.72;5095011;28;20450;-52
2021/06/10 06:08:03;;;;;;;21.17;13.40;;;;;;;25.28;40.94;101544.53;5094476;28;20482;-54
2021/06/10 06:10:30;;;;;;;43.50;30.87;;;;;;;25.39;40.94;101553.25;5095391;28;20772;-50
2021/06/10 06:13:00;;;;;;;15.10;10.27;;;;;;;25.67;39.57;101542.47;5094098;28;20784;-56
2021/06/10 06:15:28;;;;;;;15.07;8.13;;;;;;;25.91;39.64;101556.34;5095032;28;20455;-54
2021/06/10 06:17:55;;;;;;;11.77;8.17;;;;;;;25.38;40.23;101548.81;5093999;28;20463;-55
2021/06/10 06:20:23;;;;;;;10.80;7.77;;;;;;;24.89;40.28;101553.56;5095470;28;20787;-55
2021/06/10 06:22:52;;;;;;;13.27;9.50;;;;;;;25.42;40.04;101552.34;5093988;28;20489;-57
2021/06/10 06:25:20;;;;;;;21.80;12.83;;;;;;;25.43;39.81;101557.59;5095370;28;20460;-55
2021/06/10 06:27:47;;;;;;;43.87;29.43;;;;;;;25.74;39.66;101560.00;5094298;28;20489;-53
2021/06/10 06:30:16;;;;;;;56.27;37.73;;;;;;;26.07;39.33;101559.69;5094841;28;20468;-54
2021/06/10 06:32:46;;;;;;;98.80;62.97;;;;;;;26.37;38.33;101564.69;5093827;28;20543;-53
2021/06/10 06:35:14;;;;;;;17.00;9.90;;;;;;;26.40;38.53;101559.38;5094947;28;20465;-53
2021/06/10 06:37:41;;;;;;;66.47;41.67;;;;;;;26.50;38.81;101570.72;5093750;28;20483;-53
2021/06/10 06:40:11;;;;;;;21.60;11.30;;;;;;;26.72;37.34;101571.31;5096859;28;20944;-55
2021/06/10 06:42:38;;;;;;;24.50;13.23;;;;;;;26.85;37.44;101566.72;5097943;28;20473;-54
2021/06/10 06:45:06;;;;;;;14.00;8.00;;;;;;;26.91;37.83;101564.03;5099000;28;20460;-54
2021/06/10 06:47:33;;;;;;;22.90;14.40;;;;;;;26.55;38.16;101575.06;5097386;28;20469;-54
2021/06/10 06:50:01;;;;;;;25.80;17.70;;;;;;;26.78;38.64;101571.25;5088919;28;20490;-52
2021/06/10 06:52:28;;;;;;;18.80;11.67;;;;;;;26.68;36.65;101574.91;5095600;28;20908;-53
2021/06/10 06:54:55;;;;;;;6.73;3.93;;;;;;;26.47;35.42;101582.22;5098148;28;20782;-52
2021/06/10 06:57:23;;;;;;;9.40;4.30;;;;;;;26.61;35.20;101578.53;5097002;28;20473;-52
2021/06/10 06:59:51;;;;;;;15.43;9.00;;;;;;;26.49;35.70;101585.72;5098497;28;20849;-52
2021/06/10 07:02:18;;;;;;;18.60;10.73;;;;;;;26.64;35.65;101579.34;5097390;28;20483;-50
2021/06/10 07:04:46;;;;;;;27.77;14.00;;;;;;;26.67;34.57;101589.88;5098152;28;20515;-49
2021/06/10 07:07:13;;;;;;;27.53;11.60;;;;;;;26.78;35.68;101587.13;5097192;28;20454;-48
2021/06/10 07:09:40;;;;;;;9.87;5.10;;;;;;;26.48;36.60;101577.78;5098043;28;20470;-48
2021/06/10 07:12:08;;;;;;;72.80;26.07;;;;;;;26.89;34.73;101580.78;5097727;28;20470;-50
2021/06/10 07:14:37;;;;;;;53.73;22.10;;;;;;;26.59;35.21;101596.19;5098162;28;20494;-51
2021/06/10 07:17:04;;;;;;;90.17;33.20;;;;;;;26.87;34.53;101595.81;5097171;28;20460;-50
2021/06/10 07:19:31;;;;;;;21.97;13.77;;;;;;;26.80;35.63;101601.19;5097524;28;20861;-50
2021/06/10 07:21:58;;;;;;;54.23;25.10;;;;;;;27.16;33.64;101597.22;5093029;28;20454;-51
2021/06/10 07:24:40;;;;;;;13.43;8.37;;;;;;;27.27;34.27;101595.28;5075258;28;20591;-52
2021/06/10 07:27:09;;;;;;;92.30;32.03;;;;;;;27.36;33.99;101595.16;5082685;28;20462;-54
2021/06/10 07:29:37;;;;;;;12.27;4.97;;;;;;;27.36;32.88;101600.44;5088248;28;20544;-51
2021/06/10 07:32:06;;;;;;;21.23;12.37;;;;;;;27.97;34.96;101595.94;5085614;28;20458;-49
2021/06/10 07:34:34;;;;;;;24.07;15.97;;;;;;;27.85;34.84;101602.34;5086618;28;20520;-54
2021/06/10 07:37:01;;;;;;;32.53;13.70;;;;;;;28.08;32.14;101603.72;5084197;28;20497;-51
2021/06/10 07:39:28;;;;;;;30.73;18.07;;;;;;;28.02;32.68;101602.03;5086011;28;20491;-55
2021/06/10 07:41:55;;;;;;;21.43;12.40;;;;;;;28.01;33.51;101598.53;5086208;28;20774;-51
2021/06/10 07:44:22;;;;;;;21.27;11.03;;;;;;;28.42;33.32;101601.31;5087166;28;20482;-50
2021/06/10 07:46:51;;;;;;;66.20;21.80;;;;;;;28.13;31.90;101605.38;5086255;28;20925;-51
2021/06/10 07:49:18;;;;;;;14.47;6.50;;;;;;;27.57;33.44;101605.44;5084016;28;20473;-53
2021/06/10 07:51:45;;;;;;;20.90;10.87;;;;;;;27.83;32.84;101610.31;5084824;28;20459;-50
2021/06/10 07:54:12;;;;;;;12.67;7.90;;;;;;;27.73;32.79;101608.75;5085132;28;20474;-51
2021/06/10 07:56:40;;;;;;;12.43;6.60;;;;;;;27.80;32.99;101605.06;5090402;28;20897;-53
2021/06/10 07:59:07;;;;;;;11.47;6.27;;;;;;;28.07;31.70;101596.63;5086271;28;20478;-50
2021/06/10 08:01:34;;;;;;;9.90;6.20;;;;;;;28.12;31.95;101598.31;5085059;28;20454;-51
2021/06/10 08:04:03;;;;;;;12.10;7.30;;;;;;;27.70;32.71;101604.38;5094932;28;20565;-54
2021/06/10 08:06:30;;;;;;;9.23;4.83;;;;;;;27.54;33.43;101605.47;5097878;28;20473;-46
2021/06/10 08:08:57;;;;;;;12.50;7.63;;;;;;;28.06;31.97;101606.38;5095406;28;20475;-51
2021/06/10 08:11:24;;;;;;;9.00;5.90;;;;;;;28.62;31.14;101608.00;5096497;28;20480;-55
2021/06/10 08:13:51;;;;;;;14.23;8.70;;;;;;;28.29;32.61;101610.41;5095542;28;20477;-52
2021/06/10 08:16:20;;;;;;;25.67;15.00;;;;;;;28.19;33.40;101606.16;5096169;28;20449;-53
2021/06/10 08:18:47;;;;;;;9.97;4.10;;;;;;;28.57;33.67;101604.56;5101699;28;20485;-53
2021/06/10 08:21:15;;;;;;;39.00;24.87;;;;;;;28.93;31.93;101609.13;5115218;28;20476;-52
2021/06/10 08:23:42;;;;;;;8.53;5.20;;;;;;;29.01;31.40;101611.63;5095492;28;20749;-53
2021/06/10 08:26:10;;;;;;;15.20;8.70;;;;;;;29.24;31.03;101609.31;5095813;28;20935;-54
2021/06/10 08:28:37;;;;;;;10.20;6.10;;;;;;;29.06;32.10;101615.06;5094662;28;20470;-53
2021/06/10 08:31:04;;;;;;;39.80;18.70;;;;;;;28.76;31.30;101617.44;5095743;28;20454;-47
2021/06/10 08:33:33;;;;;;;11.40;6.30;;;;;;;28.41;32.10;101615.47;5095299;28;20481;-50
2021/06/10 08:36:00;;;;;;;13.23;6.67;;;;;;;28.71;32.23;101615.75;5095908;28;20466;-50
2021/06/10 08:38:29;;;;;;;33.13;18.20;;;;;;;28.42;31.65;101619.88;5094800;28;20775;-51
2021/06/10 08:40:56;;;;;;;35.37;19.10;;;;;;;28.93;31.75;101609.13;5095850;28;20488;-52
2021/06/10 08:43:24;;;;;;;17.77;11.30;;;;;;;28.92;31.71;101616.22;5094879;28;20481;-53
2021/06/10 08:45:56;;;;;;;17.10;10.80;;;;;;;28.50;32.08;101608.25;5095473;28;20460;-53
2021/06/10 08:48:24;;;;;;;22.70;14.20;;;;;;;28.37;32.21;101610.25;5094929;28;20511;-50
2021/06/10 08:50:51;;;;;;;12.20;7.00;;;;;;;28.89;31.83;101603.03;5095749;28;20449;-53
2021/06/10 08:53:18;;;;;;;24.40;13.00;;;;;;;29.22;30.96;101611.13;5094558;28;20482;-55
2021/06/10 08:55:48;;;;;;;21.17;9.80;;;;;;;29.00;32.79;101615.19;5095596;28;20463;-55
2021/06/10 08:58:15;;;;;;;21.47;10.37;;;;;;;29.02;32.23;101610.72;5094964;28;20476;-53
2021/06/10 09:00:42;;;;;;;27.80;14.90;;;;;;;28.49;32.28;101614.47;5095403;28;20482;-45
2021/06/10 09:03:09;;;;;;;13.73;9.37;;;;;;;28.32;33.21;101609.47;5094495;28;20492;-51
2021/06/10 09:05:36;;;;;;;12.07;7.70;;;;;;;29.18;32.90;101612.13;5095377;28;20457;-53
2021/06/10 09:08:05;;;;;;;16.43;10.47;;;;;;;29.03;32.34;101609.78;5094055;28;20482;-51
2021/06/10 09:10:36;;;;;;;12.53;8.17;;;;;;;28.97;32.52;101611.69;5095367;28;20768;-56
2021/06/10 09:13:07;;;;;;;12.03;8.63;;;;;;;28.80;33.25;101608.47;5094453;28;20473;-52
2021/06/10 09:15:37;;;;;;;13.67;8.80;;;;;;;29.69;31.85;101599.41;5095388;28;20457;-48
2021/06/10 09:18:05;;;;;;;14.87;9.20;;;;;;;29.58;32.79;101599.66;5094073;28;20556;-53
2021/06/10 09:20:37;;;;;;;16.93;10.70;;;;;;;29.72;32.50;101606.41;5095380;28;20533;-51
2021/06/10 09:23:13;;;;;;;36.40;17.20;;;;;;;29.68;31.72;101605.63;5094145;28;20561;-53
2021/06/10 09:25:41;;;;;;;18.70;11.80;;;;;;;29.22;31.89;101608.47;5095350;28;20464;-49
2021/06/10 09:28:10;;;;;;;18.17;11.77;;;;;;;29.86;31.00;101596.31;5094093;28;20473;-48
2021/06/10 09:30:40;;;;;;;22.80;14.23;;;;;;;29.65;31.57;101608.38;5095438;28;20456;-51
2021/06/10 09:33:11;;;;;;;23.23;13.20;;;;;;;30.15;31.13;101607.09;5094264;28;20799;-51
2021/06/10 09:35:41;;;;;;;29.97;16.63;;;;;;;29.55;31.47;101596.22;5094873;28;20492;-47
2021/06/10 09:38:10;;;;;;;15.37;10.00;;;;;;;30.02;30.95;101602.09;5094300;28;20474;-52
2021/06/10 09:40:37;;;;;;;74.50;29.57;;;;;;;30.13;31.26;101598.28;5095531;28;20537;-55
2021/06/10 09:43:04;;;;;;;13.90;9.60;;;;;;;29.87;31.89;101597.16;5092631;28;20484;-51
2021/06/10 09:45:33;;;;;;;21.63;15.90;;;;;;;30.04;31.70;101602.91;5095027;28;20464;-52
2021/06/10 09:48:01;;;;;;;18.00;12.33;;;;;;;30.11;31.77;101605.44;5093908;28;20482;-50
2021/06/10 09:50:30;;;;;;;34.40;19.77;;;;;;;29.64;31.75;101602.16;5095246;28;20446;-48
2021/06/10 09:52:59;;;;;;;21.97;13.73;;;;;;;30.04;31.12;101596.72;5093669;28;20473;-54
2021/06/10 09:55:36;;;;;;;21.43;11.50;;;;;;;29.91;31.77;101594.41;5094833;28;20744;-53
2021/06/10 09:58:24;;;;;;;18.80;11.80;;;;;;;30.13;31.72;101590.28;5093806;28;20482;-50
2021/06/10 10:00:55;;;;;;;16.93;11.63;;;;;;;30.44;31.50;101595.63;5076998;28;20486;-51
2021/06/10 10:03:41;;;;;;;24.93;16.13;;;;;;;30.15;31.35;101597.31;5073475;28;20494;-56
2021/06/10 10:06:18;;;;;;;13.00;8.70;;;;;;;29.72;32.47;101599.31;5074196;28;20465;-54
2021/06/10 10:08:51;;;;;;;20.10;13.40;;;;;;;30.17;31.32;101599.94;5073245;28;20798;-54
2021/06/10 10:11:19;;;;;;;14.90;10.40;;;;;;;30.44;31.30;101600.06;5074504;28;20465;-54
2021/06/10 10:13:48;;;;;;;15.93;11.37;;;;;;;30.24;31.02;101598.84;5086081;28;20472;-51
2021/06/10 10:16:20;;;;;;;20.60;12.37;;;;;;;30.04;33.01;101602.91;5098577;28;20457;-55
2021/06/10 10:18:49;;;;;;;15.60;11.10;;;;;;;30.09;32.22;101597.50;5097399;28;20485;-54
2021/06/10 10:21:17;;;;;;;16.83;12.17;;;;;;;29.84;31.92;101602.56;5098557;28;20527;-50
2021/06/10 10:23:44;;;;;;;31.43;17.40;;;;;;;30.20;31.93;101596.34;5097245;28;20477;-54
2021/06/10 10:26:12;;;;;;;19.00;13.50;;;;;;;30.56;30.73;101605.03;5098311;28;20885;-53
2021/06/10 10:28:39;;;;;;;14.57;9.50;;;;;;;30.10;33.62;101603.69;5097333;28;20478;-51
2021/06/10 10:31:11;;;;;;;27.63;17.03;;;;;;;29.93;32.34;101597.00;5098694;28;20456;-53
2021/06/10 10:33:44;;;;;;;28.87;17.97;;;;;;;30.04;32.40;101599.41;5096264;28;20959;-54
2021/06/10 10:36:24;;;;;;;40.60;21.70;;;;;;;30.05;32.28;101596.66;5098035;28;20494;-50
2021/06/10 10:38:59;;;;;;;20.57;12.20;;;;;;;30.40;32.23;101590.44;5096816;28;20488;-53
2021/06/10 10:41:27;;;;;;;22.63;12.43;;;;;;;30.45;32.17;101593.84;5098194;28;20480;-55
2021/06/10 10:44:09;;;;;;;41.17;17.30;;;;;;;30.64;31.68;101593.28;5096976;28;20552;-54
2021/06/10 10:46:36;;;;;;;25.00;12.40;;;;;;;30.35;32.59;101593.22;5098075;28;20457;-51
2021/06/10 10:49:20;;;;;;;54.83;27.67;;;;;;;30.85;30.75;101587.34;5094617;28;20488;-54
2021/06/10 10:51:47;;;;;;;33.67;19.47;;;;;;;30.89;31.13;101589.91;5097539;28;20453;-52
2021/06/10 10:54:30;;;;;;;24.33;15.93;;;;;;;30.77;31.47;101580.53;5096249;28;20485;-53
2021/06/10 10:56:57;;;;;;;16.70;11.67;;;;;;;31.24;31.12;101577.28;5096540;28;20454;-52
2021/06/10 10:59:24;;;;;;;22.77;15.83;;;;;;;30.83;30.88;101577.66;5091527;28;20576;-54
2021/06/10 11:02:04;;;;;;;30.77;15.33;;;;;;;30.65;31.27;101579.09;5097019;28;20552;-53
2021/06/10 11:04:50;;;;;;;23.73;14.53;;;;;;;30.90;32.14;101579.22;5096735;28;20472;-49
2021/06/10 11:07:52;;;;;;;24.20;15.60;;;;;;;31.13;30.78;101570.50;5093504;28;20767;-52
2021/06/10 11:10:59;;;;;;;20.30;13.57;;;;;;;30.43;31.98;101571.72;5095851;28;20526;-52
2021/06/10 11:13:27;;;;;;;26.17;15.00;;;;;;;30.52;32.69;101568.81;5096957;28;20473;-53
2021/06/10 11:15:57;;;;;;;24.97;15.17;;;;;;;30.63;31.16;101575.56;5097649;28;20892;-52
2021/06/10 11:18:39;;;;;;;21.30;12.20;;;;;;;31.22;30.06;101571.13;5096934;28;20505;-57
2021/06/10 11:21:08;;;;;;;21.57;14.67;;;;;;;31.11;30.12;101572.34;5097910;28;20488;-53